Time;durP1;ratioP1;P1;durP2;ratioP2;P2;SDS_P1;SDS_P2;PMS_P1;PMS_P2;Temp;Humidity;BMP_temperature;BMP_pressure;BME280_temperature;BME280_humidity;BME280_pressure;Samples;Min_cycle;Max_cycle;Signal;HPM_P1;HPM_P2
2023/07/06 00:00:00;;;;;;;;;;;;;;;;;;4945770;29;19930;-86
2023/07/06 00:02:38;;;;;;;;;;;;;;;;;;4951461;29;20627;-85
2023/07/06 00:05:05;;;;;;;;;;;;;;;;;;4944102;29;19938;-85
2023/07/06 00:07:34;;;;;;;;;;;;;;;;;;4942672;29;19933;-85
2023/07/06 00:10:07;;;;;;;;;;;;;;;;;;4957709;28;19927;-86
2023/07/06 00:12:34;;;;;;;;;;;;;;;;;;4964163;28;19934;-87
2023/07/06 00:15:09;;;;;;;;;;;;;;;;;;4952594;29;19934;-87
2023/07/06 00:17:38;;;;;;;;;;;;;;;;;;4952046;29;19937;-87
2023/07/06 00:20:13;;;;;;;;;;;;;;;;;;4952372;29;19934;-86
2023/07/06 00:22:45;;;;;;;;;;;;;;;;;;4949964;29;19942;-87
2023/07/06 00:25:13;;;;;;;;;;;;;;;;;;4947725;29;19926;-86
2023/07/06 00:27:41;;;;;;;;;;;;;;;;;;4952604;28;19938;-87
2023/07/06 00:30:18;;;;;;;;;;;;;;;;;;4952887;29;19930;-85
2023/07/06 00:32:47;;;;;;;;;;;;;;;;;;4960326;28;19926;-86
2023/07/06 00:35:20;;;;;;;;;;;;;;;;;;4959762;28;19937;-85
2023/07/06 00:37:51;;;;;;;;;;;;;;;;;;4942339;29;19930;-85
2023/07/06 00:40:18;;;;;;;;;;;;;;;;;;4951720;29;19930;-84
2023/07/06 00:42:47;;;;;;;;;;;;;;;;;;4952439;29;19934;-84
2023/07/06 00:45:15;;;;;;;;;;;;;;;;;;4940278;29;19931;-84
2023/07/06 00:47:48;;;;;;;;;;;;;;;;;;4965139;28;19950;-86
2023/07/06 00:50:15;;;;;;;;;;;;;;;;;;4950890;29;19937;-85
2023/07/06 00:52:43;;;;;;;;;;;;;;;;;;4948694;29;19946;-85
2023/07/06 00:55:11;;;;;;;;;;;;;;;;;;4952554;29;20379;-86
2023/07/06 00:57:39;;;;;;;;;;;;;;;;;;4950123;29;20387;-84
2023/07/06 01:00:07;;;;;;;;;;;;;;;;;;4946971;29;19930;-89
2023/07/06 01:02:35;;;;;;;;;;;;;;;;;;4959305;28;19927;-88
2023/07/06 01:05:04;;;;;;;;;;;;;;;;;;4964631;28;19930;-88
2023/07/06 01:07:32;;;;;;;;;;;;;;;;;;4958484;28;19926;-86
2023/07/06 01:10:00;;;;;;;;;;;;;;;;;;4967016;28;20310;-85
2023/07/06 01:12:27;;;;;;;;;;;;;;;;;;4952161;29;19926;-86
2023/07/06 01:14:55;;;;;;;;;;;;;;;;;;4951767;29;20411;-85
2023/07/06 01:17:24;;;;;;;;;;;;;;;;;;4951812;29;19927;-85
2023/07/06 01:19:51;;;;;;;;;;;;;;;;;;4948152;29;19930;-87
2023/07/06 01:22:22;;;;;;;;;;;;;;;;;;4958026;28;19927;-86
2023/07/06 01:24:50;;;;;;;;;;;;;;;;;;4962132;28;20319;-85
2023/07/06 01:27:17;;;;;;;;;;;;;;;;;;4949759;29;20299;-87
2023/07/06 01:29:45;;;;;;;;;;;;;;;;;;4952238;29;19934;-86
2023/07/06 01:32:13;;;;;;;;;;;;;;;;;;4967243;28;19949;-86
2023/07/06 01:34:41;;;;;;;;;;;;;;;;;;4940686;29;19927;-85
2023/07/06 01:37:08;;;;;;;;;;;;;;;;;;4951012;29;20283;-86
2023/07/06 01:39:36;;;;;;;;;;;;;;;;;;4942037;29;20303;-86
2023/07/06 01:42:06;;;;;;;;;;;;;;;;;;4949828;29;19926;-86
2023/07/06 01:44:34;;;;;;;;;;;;;;;;;;4952245;29;19926;-86
2023/07/06 01:47:02;;;;;;;;;;;;;;;;;;4953135;29;19930;-89
2023/07/06 01:49:29;;;;;;;;;;;;;;;;;;4952515;29;19927;-85
2023/07/06 01:52:03;;;;;;;;;;;;;;;;;;4961165;28;19934;-86
2023/07/06 01:54:31;;;;;;;;;;;;;;;;;;4967265;28;19934;-86
2023/07/06 01:56:58;;;;;;;;;;;;;;;;;;4948154;29;20443;-86
2023/07/06 01:59:26;;;;;;;;;;;;;;;;;;4943782;29;19926;-87
2023/07/06 02:01:59;;;;;;;;;;;;;;;;;;4961408;28;19942;-88
2023/07/06 02:04:27;;;;;;;;;;;;;;;;;;4961976;28;19934;-86
2023/07/06 02:06:59;;;;;;;;;;;;;;;;;;4963856;28;20391;-85
2023/07/06 02:09:27;;;;;;;;;;;;;;;;;;4950894;29;19941;-88
2023/07/06 02:11:55;;;;;;;;;;;;;;;;;;4961218;28;19930;-87
2023/07/06 02:14:22;;;;;;;;;;;;;;;;;;4949382;29;20280;-87
2023/07/06 02:16:52;;;;;;;;;;;;;;;;;;4953870;28;19926;-88
2023/07/06 02:19:20;;;;;;;;;;;;;;;;;;4949451;29;19931;-87
2023/07/06 02:21:48;;;;;;;;;;;;;;;;;;4965213;28;19938;-85
2023/07/06 02:24:15;;;;;;;;;;;;;;;;;;4948232;29;19934;-86
2023/07/06 02:26:43;;;;;;;;;;;;;;;;;;4959235;28;20438;-86
2023/07/06 02:29:11;;;;;;;;;;;;;;;;;;4951783;29;19926;-86
2023/07/06 02:31:39;;;;;;;;;;;;;;;;;;4947982;29;19933;-85
2023/07/06 02:34:06;;;;;;;;;;;;;;;;;;4942711;28;20295;-85
2023/07/06 02:36:34;;;;;;;;;;;;;;;;;;4947614;29;19926;-87
2023/07/06 02:39:03;;;;;;;;;;;;;;;;;;4947802;29;19926;-86
2023/07/06 02:41:31;;;;;;;;;;;;;;;;;;4950179;29;19930;-84
2023/07/06 02:43:58;;;;;;;;;;;;;;;;;;4946677;29;19933;-85
2023/07/06 02:46:26;;;;;;;;;;;;;;;;;;4949534;29;19953;-86
2023/07/06 02:48:53;;;;;;;;;;;;;;;;;;4962908;28;19931;-86
2023/07/06 02:51:29;;;;;;;;;;;;;;;;;;4937456;29;20011;-85
2023/07/06 02:53:57;;;;;;;;;;;;;;;;;;4936232;29;19930;-87
2023/07/06 02:56:26;;;;;;;;;;;;;;;;;;4948880;29;19930;-87
2023/07/06 02:58:54;;;;;;;;;;;;;;;;;;4943689;29;19934;-86
2023/07/06 03:01:21;;;;;;;;;;;;;;;;;;4942515;29;19926;-90
2023/07/06 03:03:51;;;;;;;;;;;;;;;;;;4962847;28;19937;-87
2023/07/06 03:06:18;;;;;;;;;;;;;;;;;;4948170;29;19935;-85
2023/07/06 03:08:51;;;;;;;;;;;;;;;;;;4961119;28;19937;-86
2023/07/06 03:11:18;;;;;;;;;;;;;;;;;;4951859;29;19934;-88
2023/07/06 03:13:46;;;;;;;;;;;;;;;;;;4950393;29;19930;-87
2023/07/06 03:16:14;;;;;;;;;;;;;;;;;;4947698;29;19935;-86
2023/07/06 03:18:43;;;;;;;;;;;;;;;;;;4948304;29;20292;-86
2023/07/06 03:21:16;;;;;;;;;;;;;;;;;;4946601;29;20280;-87
2023/07/06 03:23:44;;;;;;;;;;;;;;;;;;4946334;29;20387;-86
2023/07/06 03:26:16;;;;;;;;;;;;;;;;;;4951529;29;19931;-88
2023/07/06 03:28:44;;;;;;;;;;;;;;;;;;4945887;29;19931;-86
2023/07/06 03:31:14;;;;;;;;;;;;;;;;;;4939499;29;19938;-87
2023/07/06 03:33:41;;;;;;;;;;;;;;;;;;4937595;29;19942;-86
2023/07/06 03:36:14;;;;;;;;;;;;;;;;;;4948404;29;20422;-86
2023/07/06 03:38:41;;;;;;;;;;;;;;;;;;4950950;29;19932;-86
2023/07/06 03:41:11;;;;;;;;;;;;;;;;;;4956949;28;19931;-87
2023/07/06 03:43:39;;;;;;;;;;;;;;;;;;4951473;29;19930;-86
2023/07/06 03:46:07;;;;;;;;;;;;;;;;;;4945774;28;19927;-85
2023/07/06 03:48:34;;;;;;;;;;;;;;;;;;4951104;29;20280;-86
2023/07/06 03:51:03;;;;;;;;;;;;;;;;;;4950737;29;20407;-87
2023/07/06 03:53:30;;;;;;;;;;;;;;;;;;4949671;29;19942;-85
2023/07/06 03:56:03;;;;;;;;;;;;;;;;;;4962773;28;19926;-86
2023/07/06 03:58:30;;;;;;;;;;;;;;;;;;4946867;29;19930;-87
2023/07/06 04:00:58;;;;;;;;;;;;;;;;;;4957813;28;19927;-88
2023/07/06 04:03:26;;;;;;;;;;;;;;;;;;4939470;29;20298;-87
2023/07/06 04:05:54;;;;;;;;;;;;;;;;;;4948116;29;20302;-87
2023/07/06 04:08:21;;;;;;;;;;;;;;;;;;4964364;28;19938;-85
2023/07/06 04:10:49;;;;;;;;;;;;;;;;;;4946223;29;19930;-86
2023/07/06 04:13:16;;;;;;;;;;;;;;;;;;4945334;29;19935;-84
2023/07/06 04:15:49;;;;;;;;;;;;;;;;;;4946925;29;19938;-88
2023/07/06 04:18:16;;;;;;;;;;;;;;;;;;4956480;28;19946;-86
2023/07/06 04:20:44;;;;;;;;;;;;;;;;;;4949053;29;20379;-86
2023/07/06 04:23:12;;;;;;;;;;;;;;;;;;4963809;28;20343;-85
2023/07/06 04:25:39;;;;;;;;;;;;;;;;;;4950110;29;19930;-88
2023/07/06 04:28:12;;;;;;;;;;;;;;;;;;4948894;29;19930;-86
2023/07/06 04:30:39;;;;;;;;;;;;;;;;;;4944752;29;19930;-84
2023/07/06 04:33:09;;;;;;;;;;;;;;;;;;4937264;29;20015;-83
2023/07/06 04:35:37;;;;;;;;;;;;;;;;;;4947153;29;19930;-87
2023/07/06 04:38:04;;;;;;;;;;;;;;;;;;4941590;29;19937;-85
2023/07/06 04:40:32;;;;;;;;;;;;;;;;;;4948928;29;19931;-87
2023/07/06 04:42:59;;;;;;;;;;;;;;;;;;4938589;29;19934;-85
2023/07/06 04:45:32;;;;;;;;;;;;;;;;;;4950341;29;19926;-88
2023/07/06 04:48:00;;;;;;;;;;;;;;;;;;4956716;28;19930;-86
2023/07/06 04:50:28;;;;;;;;;;;;;;;;;;4941190;29;19930;-86
2023/07/06 04:52:55;;;;;;;;;;;;;;;;;;4953221;28;19934;-87
2023/07/06 04:55:24;;;;;;;;;;;;;;;;;;4963725;28;19931;-87
2023/07/06 04:57:52;;;;;;;;;;;;;;;;;;4952472;28;19937;-86
2023/07/06 05:00:24;;;;;;;;;;;;;;;;;;4948828;29;19931;-87
2023/07/06 05:02:52;;;;;;;;;;;;;;;;;;4948424;29;20315;-85
2023/07/06 05:05:25;;;;;;;;;;;;;;;;;;4945938;29;19926;-85
2023/07/06 05:07:53;;;;;;;;;;;;;;;;;;4968795;28;19931;-85
2023/07/06 05:10:21;;;;;;;;;;;;;;;;;;4947586;29;19930;-84
2023/07/06 05:12:48;;;;;;;;;;;;;;;;;;4950573;29;20280;-87
2023/07/06 05:15:16;;;;;;;;;;;;;;;;;;4948723;29;19942;-86
2023/07/06 05:17:43;;;;;;;;;;;;;;;;;;4953407;29;19931;-86
2023/07/06 05:20:13;;;;;;;;;;;;;;;;;;4944972;29;19937;-84
2023/07/06 05:22:42;;;;;;;;;;;;;;;;;;4951940;29;19938;-85
2023/07/06 05:25:09;;;;;;;;;;;;;;;;;;4950954;29;20379;-85
2023/07/06 05:27:37;;;;;;;;;;;;;;;;;;4946535;29;20291;-85
2023/07/06 05:30:05;;;;;;;;;;;;;;;;;;4947333;29;19930;-86
2023/07/06 05:32:32;;;;;;;;;;;;;;;;;;4944903;29;19934;-84
2023/07/06 05:35:00;;;;;;;;;;;;;;;;;;4951486;29;20310;-85
2023/07/06 05:37:27;;;;;;;;;;;;;;;;;;4950099;29;19926;-91
2023/07/06 05:39:55;;;;;;;;;;;;;;;;;;4960173;28;19926;-86
2023/07/06 05:42:22;;;;;;;;;;;;;;;;;;4964478;28;19938;-87
2023/07/06 05:44:50;;;;;;;;;;;;;;;;;;4952075;29;19937;-84
2023/07/06 05:47:18;;;;;;;;;;;;;;;;;;4947054;29;19937;-87
2023/07/06 05:49:50;;;;;;;;;;;;;;;;;;4945576;29;19935;-87
2023/07/06 05:52:18;;;;;;;;;;;;;;;;;;4953113;28;19930;-86
2023/07/06 05:54:45;;;;;;;;;;;;;;;;;;4953855;29;19930;-86
2023/07/06 05:57:16;;;;;;;;;;;;;;;;;;4948559;29;19937;-87
2023/07/06 05:59:50;;;;;;;;;;;;;;;;;;4950417;29;19934;-85
2023/07/06 06:02:23;;;;;;;;;;;;;;;;;;4948183;29;19931;-83
2023/07/06 06:04:51;;;;;;;;;;;;;;;;;;4951836;29;20406;-87
2023/07/06 06:07:19;;;;;;;;;;;;;;;;;;4948165;28;19930;-86
2023/07/06 06:09:47;;;;;;;;;;;;;;;;;;4948000;29;19934;-88
2023/07/06 06:12:18;;;;;;;;;;;;;;;;;;4946798;29;20275;-85
2023/07/06 06:14:46;;;;;;;;;;;;;;;;;;4942675;29;19934;-87
2023/07/06 06:17:14;;;;;;;;;;;;;;;;;;4949895;29;19926;-85
2023/07/06 06:19:42;;;;;;;;;;;;;;;;;;4951292;29;19934;-87
2023/07/06 06:22:10;;;;;;;;;;;;;;;;;;4948956;29;19934;-89
2023/07/06 06:24:42;;;;;;;;;;;;;;;;;;4949456;29;19927;-85
2023/07/06 06:27:10;;;;;;;;;;;;;;;;;;4941477;29;19934;-85
2023/07/06 06:29:39;;;;;;;;;;;;;;;;;;4946927;29;19934;-85
2023/07/06 06:32:06;;;;;;;;;;;;;;;;;;4943345;29;19937;-86
2023/07/06 06:34:34;;;;;;;;;;;;;;;;;;4952155;28;19937;-88
2023/07/06 06:37:03;;;;;;;;;;;;;;;;;;4950156;28;19941;-85
2023/07/06 06:39:31;;;;;;;;;;;;;;;;;;4962362;28;19935;-85
2023/07/06 06:42:00;;;;;;;;;;;;;;;;;;4959941;28;20335;-86
2023/07/06 06:44:34;;;;;;;;;;;;;;;;;;4949949;29;19930;-86
2023/07/06 06:47:04;;;;;;;;;;;;;;;;;;4940659;29;19937;-87
2023/07/06 06:49:33;;;;;;;;;;;;;;;;;;4963358;28;19934;-85
2023/07/06 06:52:05;;;;;;;;;;;;;;;;;;4950755;29;19927;-84
2023/07/06 06:54:33;;;;;;;;;;;;;;;;;;4941258;29;20383;-83
2023/07/06 06:57:00;;;;;;;;;;;;;;;;;;4946087;28;20379;-85
2023/07/06 06:59:28;;;;;;;;;;;;;;;;;;4949449;28;19941;-87
2023/07/06 07:02:02;;;;;;;;;;;;;;;;;;4964723;28;19930;-85
2023/07/06 07:04:30;;;;;;;;;;;;;;;;;;4948221;29;19927;-87
2023/07/06 07:07:03;;;;;;;;;;;;;;;;;;4961425;28;19949;-87
2023/07/06 07:09:36;;;;;;;;;;;;;;;;;;4948855;29;19931;-85
2023/07/06 07:12:03;;;;;;;;;;;;;;;;;;4946763;29;20292;-86
2023/07/06 07:14:31;;;;;;;;;;;;;;;;;;4947016;29;19934;-86
2023/07/06 07:16:58;;;;;;;;;;;;;;;;;;4949802;29;19930;-86
2023/07/06 07:19:28;;;;;;;;;;;;;;;;;;4965662;28;19937;-90
2023/07/06 07:21:57;;;;;;;;;;;;;;;;;;4940514;29;19930;-86
2023/07/06 07:24:25;;;;;;;;;;;;;;;;;;4943557;29;19931;-86
2023/07/06 07:26:53;;;;;;;;;;;;;;;;;;4959364;28;19937;-85
2023/07/06 07:29:26;;;;;;;;;;;;;;;;;;4944175;29;19931;-86
2023/07/06 07:31:53;;;;;;;;;;;;;;;;;;4952696;28;20582;-87
2023/07/06 07:34:21;;;;;;;;;;;;;;;;;;4963459;28;19930;-88
2023/07/06 07:36:50;;;;;;;;;;;;;;;;;;4948975;29;19926;-84
2023/07/06 07:39:18;;;;;;;;;;;;;;;;;;4945048;28;19934;-86
2023/07/06 07:41:45;;;;;;;;;;;;;;;;;;4945414;29;20456;-85
2023/07/06 07:44:15;;;;;;;;;;;;;;;;;;4942786;29;19942;-84
2023/07/06 07:46:43;;;;;;;;;;;;;;;;;;4961522;28;19930;-87
2023/07/06 07:49:11;;;;;;;;;;;;;;;;;;4945686;29;20636;-85
2023/07/06 07:51:39;;;;;;;;;;;;;;;;;;4960543;28;19926;-85
2023/07/06 07:54:06;;;;;;;;;;;;;;;;;;4945003;29;20295;-83
2023/07/06 07:56:35;;;;;;;;;;;;;;;;;;4949423;29;19942;-85
2023/07/06 07:59:03;;;;;;;;;;;;;;;;;;4941954;29;19931;-86
2023/07/06 08:01:32;;;;;;;;;;;;;;;;;;4959713;28;19942;-84
2023/07/06 08:04:00;;;;;;;;;;;;;;;;;;4944359;29;19935;-86
2023/07/06 08:06:28;;;;;;;;;;;;;;;;;;4959604;28;19935;-87
2023/07/06 08:09:03;;;;;;;;;;;;;;;;;;4917728;29;20667;-90
2023/07/06 08:11:31;;;;;;;;;;;;;;;;;;4922982;28;19942;-86
2023/07/06 08:13:59;;;;;;;;;;;;;;;;;;4915735;28;19984;-86
2023/07/06 08:16:28;;;;;;;;;;;;;;;;;;4914677;29;21436;-85
2023/07/06 08:18:56;;;;;;;;;;;;;;;;;;4915602;29;20607;-86
2023/07/06 08:21:23;;;;;;;;;;;;;;;;;;4918513;28;19935;-87
2023/07/06 08:23:53;;;;;;;;;;;;;;;;;;4932149;28;19934;-86
2023/07/06 08:26:20;;;;;;;;;;;;;;;;;;4936457;28;19927;-89
2023/07/06 08:28:53;;;;;;;;;;;;;;;;;;4947522;28;19934;-89
2023/07/06 08:31:20;;;;;;;;;;;;;;;;;;4947433;28;20295;-87
2023/07/06 08:33:53;;;;;;;;;;;;;;;;;;4945932;29;20137;-84
2023/07/06 08:36:27;;;;;;;;;;;;;;;;;;4947947;29;19938;-86
2023/07/06 08:38:56;;;;;;;;;;;;;;;;;;4946720;29;20011;-88
2023/07/06 08:41:29;;;;;;;;;;;;;;;;;;4963153;28;19926;-86
2023/07/06 08:43:58;;;;;;;;;;;;;;;;;;4950683;29;19926;-90
2023/07/06 08:46:27;;;;;;;;;;;;;;;;;;4947773;29;19933;-85
2023/07/06 08:48:54;;;;;;;;;;;;;;;;;;4951796;29;19949;-88
2023/07/06 08:51:23;;;;;;;;;;;;;;;;;;4961122;28;19926;-90
2023/07/06 08:53:50;;;;;;;;;;;;;;;;;;4952259;29;19931;-90
2023/07/06 08:56:18;;;;;;;;;;;;;;;;;;4954610;28;20416;-88
2023/07/06 08:58:46;;;;;;;;;;;;;;;;;;4957648;28;20277;-90
2023/07/06 09:01:14;;;;;;;;;;;;;;;;;;4952241;29;19931;-91
2023/07/06 09:03:41;;;;;;;;;;;;;;;;;;4951915;29;19927;-88
2023/07/06 09:06:09;;;;;;;;;;;;;;;;;;4960466;28;19938;-90
2023/07/06 09:08:36;;;;;;;;;;;;;;;;;;4958611;28;19949;-86
2023/07/06 09:11:05;;;;;;;;;;;;;;;;;;4967204;28;20672;-87
2023/07/06 09:13:37;;;;;;;;;;;;;;;;;;4968015;28;20434;-90
2023/07/06 09:16:04;;;;;;;;;;;;;;;;;;4951917;29;19945;-90
2023/07/06 09:18:32;;;;;;;;;;;;;;;;;;4946990;29;19938;-88
2023/07/06 09:20:59;;;;;;;;;;;;;;;;;;4949552;29;19930;-88
2023/07/06 09:23:32;;;;;;;;;;;;;;;;;;4949690;29;20850;-88
2023/07/06 09:26:01;;;;;;;;;;;;;;;;;;4965653;28;19927;-87
2023/07/06 09:28:34;;;;;;;;;;;;;;;;;;4964001;28;19926;-85
2023/07/06 09:31:01;;;;;;;;;;;;;;;;;;4941461;29;19931;-87
2023/07/06 09:33:30;;;;;;;;;;;;;;;;;;4945890;29;19930;-87
2023/07/06 09:35:58;;;;;;;;;;;;;;;;;;4944118;29;19927;-88
2023/07/06 09:38:26;;;;;;;;;;;;;;;;;;4948471;29;19926;-85
2023/07/06 09:40:53;;;;;;;;;;;;;;;;;;4950874;29;19933;-86
2023/07/06 09:43:26;;;;;;;;;;;;;;;;;;4952589;28;19938;-87
2023/07/06 09:45:54;;;;;;;;;;;;;;;;;;4950743;29;20726;-85
2023/07/06 09:48:21;;;;;;;;;;;;;;;;;;4943755;29;20391;-87
2023/07/06 09:50:53;;;;;;;;;;;;;;;;;;4924544;28;19934;-87
2023/07/06 09:53:21;;;;;;;;;;;;;;;;;;4937317;29;19934;-89
2023/07/06 09:55:49;;;;;;;;;;;;;;;;;;4925741;29;19935;-80
2023/07/06 09:58:17;;;;;;;;;;;;;;;;;;4929558;28;20371;-84
2023/07/06 10:00:44;;;;;;;;;;;;;;;;;;4914636;29;19935;-85
2023/07/06 10:03:12;;;;;;;;;;;;;;;;;;4920041;29;19934;-85
2023/07/06 10:05:45;;;;;;;;;;;;;;;;;;4922387;29;20582;-82
2023/07/06 10:08:12;;;;;;;;;;;;;;;;;;4921408;29;19935;-84
2023/07/06 10:10:42;;;;;;;;;;;;;;;;;;4924726;29;20750;-88
2023/07/06 10:13:10;;;;;;;;;;;;;;;;;;4927586;29;19950;-90
2023/07/06 10:15:37;;;;;;;;;;;;;;;;;;4926047;28;19945;-91
2023/07/06 10:18:05;;;;;;;;;;;;;;;;;;4925573;28;20331;-90
2023/07/06 10:20:33;;;;;;;;;;;;;;;;;;4924936;29;19935;-86
2023/07/06 10:23:04;;;;;;;;;;;;;;;;;;4926388;29;20696;-87
2023/07/06 10:25:36;;;;;;;;;;;;;;;;;;4934433;28;19934;-84
2023/07/06 10:28:04;;;;;;;;;;;;;;;;;;4922458;28;19941;-86
2023/07/06 10:30:32;;;;;;;;;;;;;;;;;;4935572;28;19947;-84
2023/07/06 10:32:59;;;;;;;;;;;;;;;;;;4924943;28;19933;-86
2023/07/06 10:35:32;;;;;;;;;;;;;;;;;;4921464;29;20761;-82
2023/07/06 10:38:00;;;;;;;;;;;;;;;;;;4922422;29;19934;-87
2023/07/06 10:40:27;;;;;;;;;;;;;;;;;;4923767;29;19935;-83
2023/07/06 10:42:56;;;;;;;;;;;;;;;;;;4933909;29;19935;-87
2023/07/06 10:45:24;;;;;;;;;;;;;;;;;;4916578;29;19935;-86
2023/07/06 10:47:52;;;;;;;;;;;;;;;;;;4918290;29;19935;-89
2023/07/06 10:50:20;;;;;;;;;;;;;;;;;;4921018;29;19935;-86
2023/07/06 10:52:47;;;;;;;;;;;;;;;;;;4932806;28;19946;-85
2023/07/06 10:55:15;;;;;;;;;;;;;;;;;;4920641;28;19941;-87
2023/07/06 10:57:43;;;;;;;;;;;;;;;;;;4923606;29;20024;-88
2023/07/06 11:00:10;;;;;;;;;;;;;;;;;;4921498;29;19941;-89
2023/07/06 11:02:40;;;;;;;;;;;;;;;;;;4919409;29;20052;-87
2023/07/06 11:05:08;;;;;;;;;;;;;;;;;;4935413;28;20703;-87
2023/07/06 11:07:35;;;;;;;;;;;;;;;;;;4920986;29;19964;-88
2023/07/06 11:10:05;;;;;;;;;;;;;;;;;;4921408;29;19942;-85
2023/07/06 11:12:33;;;;;;;;;;;;;;;;;;4926752;29;19961;-91
2023/07/06 11:15:01;;;;;;;;;;;;;;;;;;4934553;28;19935;-88
2023/07/06 11:17:28;;;;;;;;;;;;;;;;;;4917980;29;19934;-87
2023/07/06 11:19:56;;;;;;;;;;;;;;;;;;4922957;28;19934;-87
2023/07/06 11:22:24;;;;;;;;;;;;;;;;;;4919845;29;19942;-81
2023/07/06 11:24:51;;;;;;;;;;;;;;;;;;4920387;29;19934;-86
2023/07/06 11:27:19;;;;;;;;;;;;;;;;;;4909922;29;20725;-80
2023/07/06 11:29:53;;;;;;;;;;;;;;;;;;4928658;28;20735;-81
2023/07/06 11:32:20;;;;;;;;;;;;;;;;;;4914760;29;19934;-81
2023/07/06 11:34:48;;;;;;;;;;;;;;;;;;4917461;28;20016;-80
2023/07/06 11:37:21;;;;;;;;;;;;;;;;;;4907147;28;19941;-80
2023/07/06 11:39:49;;;;;;;;;;;;;;;;;;4946006;28;19938;-81
2023/07/06 11:42:22;;;;;;;;;;;;;;;;;;4943978;29;19985;-81
2023/07/06 11:44:50;;;;;;;;;;;;;;;;;;4949972;28;19937;-80
2023/07/06 11:47:23;;;;;;;;;;;;;;;;;;4939020;29;20363;-81
2023/07/06 11:49:51;;;;;;;;;;;;;;;;;;4941436;29;19941;-81
2023/07/06 11:52:19;;;;;;;;;;;;;;;;;;4946236;29;19930;-81
2023/07/06 11:54:51;;;;;;;;;;;;;;;;;;4948136;29;20496;-81
2023/07/06 11:57:41;;;;;;;;;;;;;;;;;;4947233;29;19937;-80
2023/07/06 12:00:22;;;;;;;;;;;;;;;;;;4947918;29;20292;-81
2023/07/06 12:02:55;;;;;;;;;;;;;;;;;;4950245;28;19934;-80
2023/07/06 12:05:22;;;;;;;;;;;;;;;;;;4962012;28;19937;-80
2023/07/06 12:07:56;;;;;;;;;;;;;;;;;;4951273;29;20276;-81
2023/07/06 12:10:23;;;;;;;;;;;;;;;;;;4950142;29;19942;-81
2023/07/06 12:12:52;;;;;;;;;;;;;;;;;;4950508;29;19930;-81
2023/07/06 12:15:21;;;;;;;;;;;;;;;;;;4950270;29;19930;-81
2023/07/06 12:17:49;;;;;;;;;;;;;;;;;;4966038;28;19926;-81
2023/07/06 12:20:22;;;;;;;;;;;;;;;;;;4947413;29;20287;-81
2023/07/06 12:22:56;;;;;;;;;;;;;;;;;;4950326;29;19930;-81
2023/07/06 12:25:24;;;;;;;;;;;;;;;;;;4951169;29;19930;-80
2023/07/06 12:27:52;;;;;;;;;;;;;;;;;;4949587;29;19933;-80
2023/07/06 12:30:24;;;;;;;;;;;;;;;;;;4965625;28;19930;-80
2023/07/06 12:32:52;;;;;;;;;;;;;;;;;;4947259;29;19930;-80
2023/07/06 12:35:19;;;;;;;;;;;;;;;;;;4953972;28;19930;-82
2023/07/06 12:37:47;;;;;;;;;;;;;;;;;;4948906;29;19938;-80
2023/07/06 12:40:15;;;;;;;;;;;;;;;;;;4951325;29;19937;-80
2023/07/06 12:42:42;;;;;;;;;;;;;;;;;;4950256;29;20310;-81
2023/07/06 12:45:15;;;;;;;;;;;;;;;;;;4948209;29;19930;-81
2023/07/06 12:47:43;;;;;;;;;;;;;;;;;;4951258;29;20785;-81
2023/07/06 12:50:10;;;;;;;;;;;;;;;;;;4950533;29;19926;-81
2023/07/06 12:52:43;;;;;;;;;;;;;;;;;;4950190;29;19935;-80
2023/07/06 12:55:16;;;;;;;;;;;;;;;;;;4949146;29;19930;-81
2023/07/06 12:57:44;;;;;;;;;;;;;;;;;;4950858;29;19930;-81
2023/07/06 13:00:12;;;;;;;;;;;;;;;;;;4959237;28;19930;-80
2023/07/06 13:02:45;;;;;;;;;;;;;;;;;;4944420;29;20290;-80
2023/07/06 13:05:17;;;;;;;;;;;;;;;;;;4961878;28;19935;-81
2023/07/06 13:07:51;;;;;;;;;;;;;;;;;;4950734;29;19931;-79
2023/07/06 13:10:18;;;;;;;;;;;;;;;;;;4943944;29;19930;-80
2023/07/06 13:12:54;;;;;;;;;;;;;;;;;;4949316;29;19931;-80
2023/07/06 13:15:26;;;;;;;;;;;;;;;;;;4949619;29;19931;-80
2023/07/06 13:17:54;;;;;;;;;;;;;;;;;;4944393;28;19930;-78
2023/07/06 13:20:27;;;;;;;;;;;;;;;;;;4960631;28;19930;-88
2023/07/06 13:22:54;;;;;;;;;;;;;;;;;;4957411;28;19942;-82
2023/07/06 13:25:22;;;;;;;;;;;;;;;;;;4951067;29;19930;-80
2023/07/06 13:27:58;;;;;;;;;;;;;;;;;;4949756;29;19930;-82
2023/07/06 13:30:27;;;;;;;;;;;;;;;;;;4949995;29;19931;-83
2023/07/06 13:32:56;;;;;;;;;;;;;;;;;;4961787;28;19938;-79
2023/07/06 13:35:24;;;;;;;;;;;;;;;;;;4949101;29;19937;-84
2023/07/06 13:37:56;;;;;;;;;;;;;;;;;;4949460;29;19930;-82
2023/07/06 13:40:30;;;;;;;;;;;;;;;;;;4944407;29;19935;-80
2023/07/06 13:43:04;;;;;;;;;;;;;;;;;;4949797;29;19930;-84
2023/07/06 13:45:32;;;;;;;;;;;;;;;;;;4950143;29;20331;-82
2023/07/06 13:48:04;;;;;;;;;;;;;;;;;;4947452;29;19937;-83
2023/07/06 13:50:32;;;;;;;;;;;;;;;;;;4964269;28;19930;-82
2023/07/06 13:53:02;;;;;;;;;;;;;;;;;;4957878;28;20288;-86
2023/07/06 13:55:29;;;;;;;;;;;;;;;;;;4948453;29;20414;-83
2023/07/06 13:57:57;;;;;;;;;;;;;;;;;;4962021;28;19930;-83
2023/07/06 14:00:27;;;;;;;;;;;;;;;;;;4950935;29;19942;-85
2023/07/06 14:02:54;;;;;;;;;;;;;;;;;;4951929;28;19938;-85
2023/07/06 14:05:22;;;;;;;;;;;;;;;;;;4949054;29;19931;-81
2023/07/06 14:07:52;;;;;;;;;;;;;;;;;;4952746;28;19941;-89
2023/07/06 14:10:19;;;;;;;;;;;;;;;;;;4952580;29;20306;-84
2023/07/06 14:12:47;;;;;;;;;;;;;;;;;;4943267;29;19937;-87
2023/07/06 14:15:18;;;;;;;;;;;;;;;;;;4948372;29;19926;-87
2023/07/06 14:17:45;;;;;;;;;;;;;;;;;;4948188;28;19949;-84
2023/07/06 14:20:13;;;;;;;;;;;;;;;;;;4949445;28;19927;-83
2023/07/06 14:22:40;;;;;;;;;;;;;;;;;;4947661;29;20572;-87
2023/07/06 14:25:08;;;;;;;;;;;;;;;;;;4961006;28;19926;-87
2023/07/06 14:27:35;;;;;;;;;;;;;;;;;;4949326;29;20303;-85
2023/07/06 14:30:03;;;;;;;;;;;;;;;;;;4948454;28;19926;-86
2023/07/06 14:32:31;;;;;;;;;;;;;;;;;;4957707;28;19937;-86
2023/07/06 14:34:58;;;;;;;;;;;;;;;;;;4957830;28;19934;-83
2023/07/06 14:37:26;;;;;;;;;;;;;;;;;;4943111;29;20399;-83
2023/07/06 14:39:55;;;;;;;;;;;;;;;;;;4942472;29;20382;-85
2023/07/06 14:42:22;;;;;;;;;;;;;;;;;;4963729;28;19926;-81
2023/07/06 14:44:50;;;;;;;;;;;;;;;;;;4950283;29;19927;-85
2023/07/06 14:47:17;;;;;;;;;;;;;;;;;;4966153;28;19934;-81
2023/07/06 14:49:50;;;;;;;;;;;;;;;;;;4959719;28;19941;-82
2023/07/06 14:52:17;;;;;;;;;;;;;;;;;;4957895;28;19931;-82
2023/07/06 14:54:50;;;;;;;;;;;;;;;;;;4947647;29;20379;-83
2023/07/06 14:57:18;;;;;;;;;;;;;;;;;;4946854;29;19937;-84
2023/07/06 14:59:46;;;;;;;;;;;;;;;;;;4943026;29;19938;-83
2023/07/06 15:02:13;;;;;;;;;;;;;;;;;;4948692;29;20298;-83
2023/07/06 15:04:41;;;;;;;;;;;;;;;;;;4947716;29;19942;-82
2023/07/06 15:07:09;;;;;;;;;;;;;;;;;;4935581;29;19935;-83
2023/07/06 15:09:37;;;;;;;;;;;;;;;;;;4934564;29;20406;-87
2023/07/06 15:12:04;;;;;;;;;;;;;;;;;;4933609;28;20649;-80
2023/07/06 15:14:37;;;;;;;;;;;;;;;;;;4921252;29;20322;-82
2023/07/06 15:17:09;;;;;;;;;;;;;;;;;;4924127;29;19938;-84
2023/07/06 15:19:37;;;;;;;;;;;;;;;;;;4918867;29;20291;-83
2023/07/06 15:22:09;;;;;;;;;;;;;;;;;;4913089;29;19941;-83
2023/07/06 15:24:37;;;;;;;;;;;;;;;;;;4918034;29;19935;-82
2023/07/06 15:27:10;;;;;;;;;;;;;;;;;;4918538;29;20004;-85
2023/07/06 15:29:37;;;;;;;;;;;;;;;;;;4927578;29;19934;-84
2023/07/06 15:32:05;;;;;;;;;;;;;;;;;;4912948;29;19934;-83
2023/07/06 15:34:32;;;;;;;;;;;;;;;;;;4925772;29;19935;-84
2023/07/06 15:37:05;;;;;;;;;;;;;;;;;;4917381;29;19942;-84
2023/07/06 15:39:32;;;;;;;;;;;;;;;;;;4916947;29;20418;-85
2023/07/06 15:42:00;;;;;;;;;;;;;;;;;;4924361;28;19935;-85
2023/07/06 15:44:27;;;;;;;;;;;;;;;;;;4917464;29;20016;-84
2023/07/06 15:47:00;;;;;;;;;;;;;;;;;;4928953;28;19935;-81
2023/07/06 15:49:32;;;;;;;;;;;;;;;;;;4911710;29;19934;-82
2023/07/06 15:52:00;;;;;;;;;;;;;;;;;;4924725;29;20170;-85
2023/07/06 15:54:28;;;;;;;;;;;;;;;;;;4931503;28;19931;-82
2023/07/06 15:56:55;;;;;;;;;;;;;;;;;;4921950;29;19984;-83
2023/07/06 15:59:23;;;;;;;;;;;;;;;;;;4911581;29;19935;-82
2023/07/06 16:01:52;;;;;;;;;;;;;;;;;;4916101;29;19931;-90
2023/07/06 16:04:20;;;;;;;;;;;;;;;;;;4944433;28;19938;-86
2023/07/06 16:06:47;;;;;;;;;;;;;;;;;;4924603;29;19941;-87
2023/07/06 16:09:15;;;;;;;;;;;;;;;;;;4917797;29;21194;-86
2023/07/06 16:11:44;;;;;;;;;;;;;;;;;;4917592;29;19934;-86
2023/07/06 16:14:11;;;;;;;;;;;;;;;;;;4912696;29;19934;-89
2023/07/06 16:16:39;;;;;;;;;;;;;;;;;;4912917;28;19945;-81
2023/07/06 16:19:11;;;;;;;;;;;;;;;;;;4910334;29;19954;-82
2023/07/06 16:21:40;;;;;;;;;;;;;;;;;;4906662;28;20600;-84
2023/07/06 16:24:13;;;;;;;;;;;;;;;;;;4899920;29;20380;-84
2023/07/06 16:26:46;;;;;;;;;;;;;;;;;;4908230;29;19941;-83
2023/07/06 16:29:15;;;;;;;;;;;;;;;;;;4912734;28;19934;-88
2023/07/06 16:31:42;;;;;;;;;;;;;;;;;;4934345;28;19942;-89
2023/07/06 16:34:10;;;;;;;;;;;;;;;;;;4917977;28;20697;-90
2023/07/06 16:36:40;;;;;;;;;;;;;;;;;;4922452;29;19938;-91
2023/07/06 16:39:08;;;;;;;;;;;;;;;;;;4919838;29;20449;-92
2023/07/06 16:41:36;;;;;;;;;;;;;;;;;;4913734;29;19934;-90
2023/07/06 16:44:04;;;;;;;;;;;;;;;;;;4935794;28;20773;-90
2023/07/06 16:46:32;;;;;;;;;;;;;;;;;;4931312;28;21480;-88
2023/07/06 16:48:59;;;;;;;;;;;;;;;;;;4927098;28;20339;-88
2023/07/06 16:51:27;;;;;;;;;;;;;;;;;;4929358;28;20424;-87
2023/07/06 16:53:54;;;;;;;;;;;;;;;;;;4922779;29;20313;-87
2023/07/06 16:56:22;;;;;;;;;;;;;;;;;;4936154;28;19935;-88